Time;durP1;ratioP1;P1;durP2;ratioP2;P2;SDS_P1;SDS_P2;PMS_P1;PMS_P2;Temp;Humidity;BMP_temperature;BMP_pressure;BME280_temperature;BME280_humidity;BME280_pressure;Samples;Min_cycle;Max_cycle;Signal;HPM_P1;HPM_P2
2021/04/21 00:00:28;;;;;;;25;15.45;;;;;;;2.75;77.64063;95092.95;;;;
2021/04/21 00:01:30;;;;;;;25;15.45;;;;;;;2.75;77.64063;95092.95;;;;
2021/04/21 00:02:31;;;;;;;25;15.45;;;;;;;2.75;77.64063;95092.95;;;;
2021/04/21 00:03:33;;;;;;;25;15.45;;;;;;;2.75;77.64063;95092.95;;;;
2021/04/21 00:04:34;;;;;;;25;15.45;;;;;;;2.75;77.64063;95092.95;;;;
2021/04/21 00:05:36;;;;;;;25;15.45;;;;;;;2.75;77.64063;95092.95;;;;
2021/04/21 00:06:37;;;;;;;25;15.45;;;;;;;2.75;77.64063;95092.95;;;;
2021/04/21 00:07:41;;;;;;;25;15.45;;;;;;;2.75;77.64063;95092.95;;;;
2021/04/21 00:08:43;;;;;;;22.35;15;;;;;;;2.64;77.87305;95084.95;;;;
2021/04/21 00:09:45;;;;;;;22.35;15;;;;;;;2.64;77.87305;95084.95;;;;
2021/04/21 00:10:47;;;;;;;22.35;15;;;;;;;2.64;77.87305;95084.95;;;;
2021/04/21 00:11:48;;;;;;;22.35;15;;;;;;;2.64;77.87305;95084.95;;;;
2021/04/21 00:12:50;;;;;;;22.35;15;;;;;;;2.64;77.87305;95084.95;;;;
2021/04/21 00:13:52;;;;;;;22.35;15;;;;;;;2.64;77.87305;95084.95;;;;
2021/04/21 00:14:52;;;;;;;22.35;15;;;;;;;2.64;77.87305;95084.95;;;;
2021/04/21 00:15:53;;;;;;;22.35;15;;;;;;;2.64;77.87305;95084.95;;;;
2021/04/21 00:16:55;;;;;;;22.35;15;;;;;;;2.64;77.87305;95084.95;;;;
2021/04/21 00:18:01;;;;;;;22.35;15;;;;;;;2.64;77.87305;95084.95;;;;
2021/04/21 00:19:05;;;;;;;26;15.1;;;;;;;2.58;78.05176;95075.99;;;;
2021/04/21 00:20:06;;;;;;;26;15.1;;;;;;;2.58;78.05176;95075.99;;;;
2021/04/21 00:21:09;;;;;;;26;15.1;;;;;;;2.58;78.05176;95075.99;;;;
2021/04/21 00:22:09;;;;;;;26;15.1;;;;;;;2.58;78.05176;95075.99;;;;
2021/04/21 00:23:13;;;;;;;26;15.1;;;;;;;2.58;78.05176;95075.99;;;;
2021/04/21 00:24:14;;;;;;;26;15.1;;;;;;;2.58;78.05176;95075.99;;;;
2021/04/21 00:25:16;;;;;;;26;15.1;;;;;;;2.58;78.05176;95075.99;;;;
2021/04/21 00:26:17;;;;;;;26;15.1;;;;;;;2.58;78.05176;95075.99;;;;
2021/04/21 00:27:21;;;;;;;26;15.1;;;;;;;2.58;78.05176;95075.99;;;;
2021/04/21 00:28:24;;;;;;;26;15.1;;;;;;;2.58;78.05176;95075.99;;;;
2021/04/21 00:29:29;;;;;;;24.45;14.85;;;;;;;2.55;77.89844;95075.05;;;;
2021/04/21 00:30:31;;;;;;;24.45;14.85;;;;;;;2.55;77.89844;95075.05;;;;
2021/04/21 00:31:34;;;;;;;24.45;14.85;;;;;;;2.55;77.89844;95075.05;;;;
2021/04/21 00:32:36;;;;;;;24.45;14.85;;;;;;;2.55;77.89844;95075.05;;;;
2021/04/21 00:33:44;;;;;;;24.45;14.85;;;;;;;2.55;77.89844;95075.05;;;;
2021/04/21 00:34:51;;;;;;;24.45;14.85;;;;;;;2.55;77.89844;95075.05;;;;
2021/04/21 00:35:54;;;;;;;24.45;14.85;;;;;;;2.55;77.89844;95075.05;;;;
2021/04/21 00:36:56;;;;;;;24.45;14.85;;;;;;;2.55;77.89844;95075.05;;;;
2021/04/21 00:37:58;;;;;;;24.45;14.85;;;;;;;2.55;77.89844;95075.05;;;;
2021/04/21 00:39:01;;;;;;;24.45;14.85;;;;;;;2.55;77.89844;95075.05;;;;
2021/04/21 00:40:03;;;;;;;24.1;14.5;;;;;;;2.46;77.79883;95064.63;;;;
2021/04/21 00:41:08;;;;;;;24.1;14.5;;;;;;;2.46;77.79883;95064.63;;;;
2021/04/21 00:42:28;;;;;;;24.1;14.5;;;;;;;2.46;77.79883;95064.63;;;;
2021/04/21 00:43:40;;;;;;;24.1;14.5;;;;;;;2.46;77.79883;95064.63;;;;
2021/04/21 00:44:51;;;;;;;24.1;14.5;;;;;;;2.46;77.79883;95064.63;;;;
2021/04/21 00:46:00;;;;;;;24.1;14.5;;;;;;;2.46;77.79883;95064.63;;;;
2021/04/21 00:47:10;;;;;;;24.1;14.5;;;;;;;2.46;77.79883;95064.63;;;;
2021/04/21 00:48:17;;;;;;;24.1;14.5;;;;;;;2.46;77.79883;95064.63;;;;
2021/04/21 00:49:29;;;;;;;24.1;14.5;;;;;;;2.46;77.79883;95064.63;;;;
2021/04/21 00:50:40;;;;;;;24.75;14.55;;;;;;;2.39;77.99512;95053.59;;;;
2021/04/21 00:51:49;;;;;;;24.75;14.55;;;;;;;2.39;77.99512;95053.59;;;;
2021/04/21 00:52:55;;;;;;;24.75;14.55;;;;;;;2.39;77.99512;95053.59;;;;
2021/04/21 00:54:02;;;;;;;24.75;14.55;;;;;;;2.39;77.99512;95053.59;;;;
2021/04/21 00:55:11;;;;;;;24.75;14.55;;;;;;;2.39;77.99512;95053.59;;;;
2021/04/21 00:56:17;;;;;;;24.75;14.55;;;;;;;2.39;77.99512;95053.59;;;;
2021/04/21 00:57:26;;;;;;;24.75;14.55;;;;;;;2.39;77.99512;95053.59;;;;
2021/04/21 00:58:33;;;;;;;24.75;14.55;;;;;;;2.39;77.99512;95053.59;;;;
2021/04/21 00:59:45;;;;;;;24.75;14.55;;;;;;;2.39;77.99512;95053.59;;;;
2021/04/21 01:00:57;;;;;;;24.75;14.55;;;;;;;2.39;77.99512;95053.59;;;;
2021/04/21 01:01:58;;;;;;;22.75;13.2;;;;;;;2.36;78.16797;95039.72;;;;
2021/04/21 01:03:01;;;;;;;22.75;13.2;;;;;;;2.36;78.16797;95039.72;;;;
2021/04/21 01:04:08;;;;;;;22.75;13.2;;;;;;;2.36;78.16797;95039.72;;;;
2021/04/21 01:05:10;;;;;;;22.75;13.2;;;;;;;2.36;78.16797;95039.72;;;;
2021/04/21 01:06:15;;;;;;;22.75;13.2;;;;;;;2.36;78.16797;95039.72;;;;
2021/04/21 01:07:18;;;;;;;22.75;13.2;;;;;;;2.36;78.16797;95039.72;;;;
2021/04/21 01:08:19;;;;;;;22.75;13.2;;;;;;;2.36;78.16797;95039.72;;;;
2021/04/21 01:09:26;;;;;;;22.75;13.2;;;;;;;2.36;78.16797;95039.72;;;;
2021/04/21 01:10:29;;;;;;;22.75;13.2;;;;;;;2.36;78.16797;95039.72;;;;
2021/04/21 01:11:33;;;;;;;22.75;13.2;;;;;;;2.36;78.16797;95039.72;;;;
2021/04/21 01:12:39;;;;;;;21.95;13.7;;;;;;;2.38;78.25586;95042.61;;;;
2021/04/21 01:13:40;;;;;;;21.95;13.7;;;;;;;2.38;78.25586;95042.61;;;;
2021/04/21 01:14:45;;;;;;;21.95;13.7;;;;;;;2.38;78.25586;95042.61;;;;
2021/04/21 01:15:49;;;;;;;21.95;13.7;;;;;;;2.38;78.25586;95042.61;;;;
2021/04/21 01:16:50;;;;;;;21.95;13.7;;;;;;;2.38;78.25586;95042.61;;;;
2021/04/21 01:17:56;;;;;;;21.95;13.7;;;;;;;2.38;78.25586;95042.61;;;;
2021/04/21 01:18:58;;;;;;;21.95;13.7;;;;;;;2.38;78.25586;95042.61;;;;
2021/04/21 01:20:04;;;;;;;21.95;13.7;;;;;;;2.38;78.25586;95042.61;;;;
2021/04/21 01:21:12;;;;;;;21.95;13.7;;;;;;;2.38;78.25586;95042.61;;;;
2021/04/21 01:22:18;;;;;;;21.95;13.7;;;;;;;2.38;78.25586;95042.61;;;;
2021/04/21 01:23:26;;;;;;;20.25;12.6;;;;;;;2.56;78.73926;95040.3;;;;
2021/04/21 01:24:53;;;;;;;20.25;12.6;;;;;;;2.56;78.73926;95040.3;;;;
2021/04/21 01:26:02;;;;;;;20.25;12.6;;;;;;;2.56;78.73926;95040.3;;;;
2021/04/21 01:27:19;;;;;;;20.25;12.6;;;;;;;2.56;78.73926;95040.3;;;;
2021/04/21 01:28:22;;;;;;;20.25;12.6;;;;;;;2.56;78.73926;95040.3;;;;
2021/04/21 01:29:26;;;;;;;20.25;12.6;;;;;;;2.56;78.73926;95040.3;;;;
2021/04/21 01:30:31;;;;;;;20.25;12.6;;;;;;;2.56;78.73926;95040.3;;;;
2021/04/21 01:31:35;;;;;;;20.25;12.6;;;;;;;2.56;78.73926;95040.3;;;;
2021/04/21 01:32:38;;;;;;;20.25;12.6;;;;;;;2.56;78.73926;95040.3;;;;
2021/04/21 01:33:43;;;;;;;19.95;11.6;;;;;;;2.71;78.71387;95039.71;;;;
2021/04/21 01:34:47;;;;;;;19.95;11.6;;;;;;;2.71;78.71387;95039.71;;;;
2021/04/21 01:35:49;;;;;;;19.95;11.6;;;;;;;2.71;78.71387;95039.71;;;;
2021/04/21 01:36:54;;;;;;;19.95;11.6;;;;;;;2.71;78.71387;95039.71;;;;
2021/04/21 01:37:58;;;;;;;19.95;11.6;;;;;;;2.71;78.71387;95039.71;;;;
2021/04/21 01:39:02;;;;;;;19.95;11.6;;;;;;;2.71;78.71387;95039.71;;;;
2021/04/21 01:40:04;;;;;;;19.95;11.6;;;;;;;2.71;78.71387;95039.71;;;;
2021/04/21 01:41:09;;;;;;;19.95;11.6;;;;;;;2.71;78.71387;95039.71;;;;
2021/04/21 01:42:14;;;;;;;19.95;11.6;;;;;;;2.71;78.71387;95039.71;;;;
2021/04/21 01:43:17;;;;;;;19.95;11.6;;;;;;;2.71;78.71387;95039.71;;;;
2021/04/21 01:44:21;;;;;;;16.85;10.5;;;;;;;2.79;78.67578;95034.75;;;;
2021/04/21 01:45:28;;;;;;;16.85;10.5;;;;;;;2.79;78.67578;95034.75;;;;
2021/04/21 01:46:30;;;;;;;16.85;10.5;;;;;;;2.79;78.67578;95034.75;;;;
2021/04/21 01:47:37;;;;;;;16.85;10.5;;;;;;;2.79;78.67578;95034.75;;;;
2021/04/21 01:48:39;;;;;;;16.85;10.5;;;;;;;2.79;78.67578;95034.75;;;;
2021/04/21 01:49:41;;;;;;;16.85;10.5;;;;;;;2.79;78.67578;95034.75;;;;
2021/04/21 01:50:54;;;;;;;16.85;10.5;;;;;;;2.79;78.67578;95034.75;;;;
2021/04/21 01:51:57;;;;;;;16.85;10.5;;;;;;;2.79;78.67578;95034.75;;;;
2021/04/21 01:53:05;;;;;;;16.85;10.5;;;;;;;2.79;78.67578;95034.75;;;;
2021/04/21 01:54:18;;;;;;;16.85;10.5;;;;;;;2.79;78.67578;95034.75;;;;
2021/04/21 01:55:19;;;;;;;14.3;10.4;;;;;;;2.75;78.68945;95032.56;;;;
2021/04/21 01:56:33;;;;;;;14.3;10.4;;;;;;;2.75;78.68945;95032.56;;;;
2021/04/21 01:57:41;;;;;;;14.3;10.4;;;;;;;2.75;78.68945;95032.56;;;;
2021/04/21 01:58:46;;;;;;;14.3;10.4;;;;;;;2.75;78.68945;95032.56;;;;
2021/04/21 01:59:57;;;;;;;14.3;10.4;;;;;;;2.75;78.68945;95032.56;;;;
2021/04/21 02:01:04;;;;;;;14.3;10.4;;;;;;;2.75;78.68945;95032.56;;;;
2021/04/21 02:02:10;;;;;;;14.3;10.4;;;;;;;2.75;78.68945;95032.56;;;;
2021/04/21 02:03:17;;;;;;;14.3;10.4;;;;;;;2.75;78.68945;95032.56;;;;
2021/04/21 02:04:24;;;;;;;14.3;10.4;;;;;;;2.75;78.68945;95032.56;;;;
2021/04/21 02:05:36;;;;;;;14.1;9.65;;;;;;;2.64;78.76563;95043.64;;;;
2021/04/21 02:06:45;;;;;;;14.1;9.65;;;;;;;2.64;78.76563;95043.64;;;;
2021/04/21 02:07:55;;;;;;;14.1;9.65;;;;;;;2.64;78.76563;95043.64;;;;
2021/04/21 02:09:05;;;;;;;14.1;9.65;;;;;;;2.64;78.76563;95043.64;;;;
2021/04/21 02:11:16;;;;;;;14.1;9.65;;;;;;;2.64;78.76563;95043.64;;;;
2021/04/21 02:12:19;;;;;;;14.1;9.65;;;;;;;2.64;78.76563;95043.64;;;;
2021/04/21 02:13:45;;;;;;;14.1;9.65;;;;;;;2.64;78.76563;95043.64;;;;
2021/04/21 02:15:09;;;;;;;14.1;9.65;;;;;;;2.64;78.76563;95043.64;;;;
2021/04/21 02:16:15;;;;;;;13.35;9.4;;;;;;;2.41;78.97363;95041.83;;;;
2021/04/21 02:17:23;;;;;;;13.35;9.4;;;;;;;2.41;78.97363;95041.83;;;;
2021/04/21 02:18:32;;;;;;;13.35;9.4;;;;;;;2.41;78.97363;95041.83;;;;
2021/04/21 02:19:48;;;;;;;13.35;9.4;;;;;;;2.41;78.97363;95041.83;;;;
2021/04/21 02:20:56;;;;;;;13.35;9.4;;;;;;;2.41;78.97363;95041.83;;;;
2021/04/21 02:22:08;;;;;;;13.35;9.4;;;;;;;2.41;78.97363;95041.83;;;;
2021/04/21 02:23:25;;;;;;;13.35;9.4;;;;;;;2.41;78.97363;95041.83;;;;
2021/04/21 02:24:32;;;;;;;13.35;9.4;;;;;;;2.41;78.97363;95041.83;;;;
2021/04/21 02:25:44;;;;;;;13.35;9.4;;;;;;;2.41;78.97363;95041.83;;;;
2021/04/21 02:27:04;;;;;;;13.4;9.599999;;;;;;;2.21;79.3457;95042.04;;;;
2021/04/21 02:28:13;;;;;;;13.4;9.599999;;;;;;;2.21;79.3457;95042.04;;;;
2021/04/21 02:29:21;;;;;;;13.4;9.599999;;;;;;;2.21;79.3457;95042.04;;;;
2021/04/21 02:30:31;;;;;;;13.4;9.599999;;;;;;;2.21;79.3457;95042.04;;;;
2021/04/21 02:31:38;;;;;;;13.4;9.599999;;;;;;;2.21;79.3457;95042.04;;;;
2021/04/21 02:32:48;;;;;;;13.4;9.599999;;;;;;;2.21;79.3457;95042.04;;;;
2021/04/21 02:34:08;;;;;;;13.4;9.599999;;;;;;;2.21;79.3457;95042.04;;;;
2021/04/21 02:35:16;;;;;;;13.4;9.599999;;;;;;;2.21;79.3457;95042.04;;;;
2021/04/21 02:36:22;;;;;;;13.4;9.599999;;;;;;;2.21;79.3457;95042.04;;;;
2021/04/21 02:37:27;;;;;;;14.05;9.099999;;;;;;;2.04;79.57617;95043.82;;;;
2021/04/21 02:38:35;;;;;;;14.05;9.099999;;;;;;;2.04;79.57617;95043.82;;;;
2021/04/21 02:39:45;;;;;;;14.05;9.099999;;;;;;;2.04;79.57617;95043.82;;;;
2021/04/21 02:40:53;;;;;;;14.05;9.099999;;;;;;;2.04;79.57617;95043.82;;;;
2021/04/21 02:42:05;;;;;;;14.05;9.099999;;;;;;;2.04;79.57617;95043.82;;;;
2021/04/21 02:43:13;;;;;;;14.05;9.099999;;;;;;;2.04;79.57617;95043.82;;;;
2021/04/21 02:44:21;;;;;;;14.05;9.099999;;;;;;;2.04;79.57617;95043.82;;;;
2021/04/21 02:45:29;;;;;;;14.05;9.099999;;;;;;;2.04;79.57617;95043.82;;;;
2021/04/21 02:46:37;;;;;;;14.05;9.099999;;;;;;;2.04;79.57617;95043.82;;;;
2021/04/21 02:47:44;;;;;;;14.05;9.099999;;;;;;;2.04;79.57617;95043.82;;;;
2021/04/21 02:48:49;;;;;;;16.35;10.4;;;;;;;1.92;80.19238;95035.11;;;;
2021/04/21 02:50:03;;;;;;;16.35;10.4;;;;;;;1.92;80.19238;95035.11;;;;
2021/04/21 02:51:09;;;;;;;16.35;10.4;;;;;;;1.92;80.19238;95035.11;;;;
2021/04/21 02:52:15;;;;;;;16.35;10.4;;;;;;;1.92;80.19238;95035.11;;;;
2021/04/21 02:53:28;;;;;;;16.35;10.4;;;;;;;1.92;80.19238;95035.11;;;;
2021/04/21 02:54:37;;;;;;;16.35;10.4;;;;;;;1.92;80.19238;95035.11;;;;
2021/04/21 02:55:49;;;;;;;16.35;10.4;;;;;;;1.92;80.19238;95035.11;;;;
2021/04/21 02:57:05;;;;;;;16.35;10.4;;;;;;;1.92;80.19238;95035.11;;;;
2021/04/21 02:58:13;;;;;;;16.35;10.4;;;;;;;1.92;80.19238;95035.11;;;;
2021/04/21 02:59:21;;;;;;;14.45;9.9;;;;;;;1.91;80.19043;95023.22;;;;
2021/04/21 03:00:30;;;;;;;14.45;9.9;;;;;;;1.91;80.19043;95023.22;;;;
2021/04/21 03:01:37;;;;;;;14.45;9.9;;;;;;;1.91;80.19043;95023.22;;;;
2021/04/21 03:02:45;;;;;;;14.45;9.9;;;;;;;1.91;80.19043;95023.22;;;;
2021/04/21 03:03:55;;;;;;;14.45;9.9;;;;;;;1.91;80.19043;95023.22;;;;
2021/04/21 03:05:04;;;;;;;14.45;9.9;;;;;;;1.91;80.19043;95023.22;;;;
2021/04/21 03:06:10;;;;;;;14.45;9.9;;;;;;;1.91;80.19043;95023.22;;;;
2021/04/21 03:07:14;;;;;;;14.45;9.9;;;;;;;1.91;80.19043;95023.22;;;;
2021/04/21 03:08:20;;;;;;;14.45;9.9;;;;;;;1.91;80.19043;95023.22;;;;
2021/04/21 03:09:25;;;;;;;14.45;9.9;;;;;;;1.91;80.19043;95023.22;;;;
2021/04/21 03:10:33;;;;;;;13.7;9.5;;;;;;;1.87;80.15332;95027.68;;;;
2021/04/21 03:11:41;;;;;;;13.7;9.5;;;;;;;1.87;80.15332;95027.68;;;;
2021/04/21 03:12:42;;;;;;;13.7;9.5;;;;;;;1.87;80.15332;95027.68;;;;
2021/04/21 03:14:04;;;;;;;13.7;9.5;;;;;;;1.87;80.15332;95027.68;;;;
2021/04/21 03:15:08;;;;;;;13.7;9.5;;;;;;;1.87;80.15332;95027.68;;;;
2021/04/21 03:16:15;;;;;;;13.7;9.5;;;;;;;1.87;80.15332;95027.68;;;;
2021/04/21 03:17:19;;;;;;;13.7;9.5;;;;;;;1.87;80.15332;95027.68;;;;
2021/04/21 03:18:20;;;;;;;13.7;9.5;;;;;;;1.87;80.15332;95027.68;;;;
2021/04/21 03:19:21;;;;;;;13.7;9.5;;;;;;;1.87;80.15332;95027.68;;;;
2021/04/21 03:20:26;;;;;;;13.65;9.1;;;;;;;1.76;80.19336;95019.39;;;;
2021/04/21 03:21:31;;;;;;;13.65;9.1;;;;;;;1.76;80.19336;95019.39;;;;
2021/04/21 03:22:35;;;;;;;13.65;9.1;;;;;;;1.76;80.19336;95019.39;;;;
2021/04/21 03:23:38;;;;;;;13.65;9.1;;;;;;;1.76;80.19336;95019.39;;;;
2021/04/21 03:24:42;;;;;;;13.65;9.1;;;;;;;1.76;80.19336;95019.39;;;;
2021/04/21 03:25:48;;;;;;;13.65;9.1;;;;;;;1.76;80.19336;95019.39;;;;
2021/04/21 03:26:51;;;;;;;13.65;9.1;;;;;;;1.76;80.19336;95019.39;;;;
2021/04/21 03:27:56;;;;;;;13.65;9.1;;;;;;;1.76;80.19336;95019.39;;;;
2021/04/21 03:29:00;;;;;;;13.65;9.1;;;;;;;1.76;80.19336;95019.39;;;;
2021/04/21 03:30:04;;;;;;;13.65;9.1;;;;;;;1.76;80.19336;95019.39;;;;
2021/04/21 03:31:11;;;;;;;11.95;8.700001;;;;;;;1.63;80.34863;95015.25;;;;
2021/04/21 03:32:13;;;;;;;11.95;8.700001;;;;;;;1.63;80.34863;95015.25;;;;
2021/04/21 03:33:19;;;;;;;11.95;8.700001;;;;;;;1.63;80.34863;95015.25;;;;
2021/04/21 03:34:25;;;;;;;11.95;8.700001;;;;;;;1.63;80.34863;95015.25;;;;
2021/04/21 03:35:28;;;;;;;11.95;8.700001;;;;;;;1.63;80.34863;95015.25;;;;
2021/04/21 03:36:31;;;;;;;11.95;8.700001;;;;;;;1.63;80.34863;95015.25;;;;
2021/04/21 03:37:33;;;;;;;11.95;8.700001;;;;;;;1.63;80.34863;95015.25;;;;
2021/04/21 03:38:46;;;;;;;11.95;8.700001;;;;;;;1.63;80.34863;95015.25;;;;
2021/04/21 03:39:48;;;;;;;11.95;8.700001;;;;;;;1.63;80.34863;95015.25;;;;
2021/04/21 03:40:50;;;;;;;11.95;8.700001;;;;;;;1.63;80.34863;95015.25;;;;
2021/04/21 03:41:51;;;;;;;11.9;8.999999;;;;;;;1.51;80.38867;95022.88;;;;
2021/04/21 03:42:52;;;;;;;11.9;8.999999;;;;;;;1.51;80.38867;95022.88;;;;
2021/04/21 03:43:53;;;;;;;11.9;8.999999;;;;;;;1.51;80.38867;95022.88;;;;
2021/04/21 03:44:55;;;;;;;11.9;8.999999;;;;;;;1.51;80.38867;95022.88;;;;
2021/04/21 03:45:55;;;;;;;11.9;8.999999;;;;;;;1.51;80.38867;95022.88;;;;
2021/04/21 03:46:57;;;;;;;11.9;8.999999;;;;;;;1.51;80.38867;95022.88;;;;
2021/04/21 03:47:58;;;;;;;11.9;8.999999;;;;;;;1.51;80.38867;95022.88;;;;
2021/04/21 03:48:59;;;;;;;11.9;8.999999;;;;;;;1.51;80.38867;95022.88;;;;
2021/04/21 03:50:02;;;;;;;11.9;8.999999;;;;;;;1.51;80.38867;95022.88;;;;
2021/04/21 03:51:04;;;;;;;11.9;8.999999;;;;;;;1.51;80.38867;95022.88;;;;
2021/04/21 03:52:06;;;;;;;11.9;8.999999;;;;;;;1.51;80.38867;95022.88;;;;
2021/04/21 03:53:08;;;;;;;12.2;8.25;;;;;;;1.47;80.34961;95013.23;;;;
2021/04/21 03:54:09;;;;;;;12.2;8.25;;;;;;;1.47;80.34961;95013.23;;;;
2021/04/21 03:55:12;;;;;;;12.2;8.25;;;;;;;1.47;80.34961;95013.23;;;;
2021/04/21 03:56:15;;;;;;;12.2;8.25;;;;;;;1.47;80.34961;95013.23;;;;
2021/04/21 03:57:18;;;;;;;12.2;8.25;;;;;;;1.47;80.34961;95013.23;;;;
2021/04/21 03:58:20;;;;;;;12.2;8.25;;;;;;;1.47;80.34961;95013.23;;;;
2021/04/21 03:59:23;;;;;;;12.2;8.25;;;;;;;1.47;80.34961;95013.23;;;;
2021/04/21 04:00:25;;;;;;;12.2;8.25;;;;;;;1.47;80.34961;95013.23;;;;
2021/04/21 04:01:27;;;;;;;12.2;8.25;;;;;;;1.47;80.34961;95013.23;;;;
2021/04/21 04:02:27;;;;;;;12.2;8.25;;;;;;;1.47;80.34961;95013.23;;;;
2021/04/21 04:03:30;;;;;;;13.55;9.55;;;;;;;1.41;80.20117;95010.89;;;;
2021/04/21 04:04:32;;;;;;;13.55;9.55;;;;;;;1.41;80.20117;95010.89;;;;
2021/04/21 04:05:37;;;;;;;13.55;9.55;;;;;;;1.41;80.20117;95010.89;;;;
2021/04/21 04:06:43;;;;;;;13.55;9.55;;;;;;;1.41;80.20117;95010.89;;;;
2021/04/21 04:07:46;;;;;;;13.55;9.55;;;;;;;1.41;80.20117;95010.89;;;;
2021/04/21 04:08:50;;;;;;;13.55;9.55;;;;;;;1.41;80.20117;95010.89;;;;
2021/04/21 04:09:58;;;;;;;13.55;9.55;;;;;;;1.41;80.20117;95010.89;;;;
2021/04/21 04:11:03;;;;;;;13.55;9.55;;;;;;;1.41;80.20117;95010.89;;;;
2021/04/21 04:12:06;;;;;;;13.55;9.55;;;;;;;1.41;80.20117;95010.89;;;;
2021/04/21 04:13:09;;;;;;;13.55;9.55;;;;;;;1.41;80.20117;95010.89;;;;
2021/04/21 04:14:12;;;;;;;12.9;8.900001;;;;;;;1.33;80.26074;95014.47;;;;
2021/04/21 04:15:18;;;;;;;12.9;8.900001;;;;;;;1.33;80.26074;95014.47;;;;
2021/04/21 04:16:20;;;;;;;12.9;8.900001;;;;;;;1.33;80.26074;95014.47;;;;
2021/04/21 04:17:23;;;;;;;12.9;8.900001;;;;;;;1.33;80.26074;95014.47;;;;
2021/04/21 04:18:25;;;;;;;12.9;8.900001;;;;;;;1.33;80.26074;95014.47;;;;
2021/04/21 04:19:27;;;;;;;12.9;8.900001;;;;;;;1.33;80.26074;95014.47;;;;
2021/04/21 04:20:30;;;;;;;12.9;8.900001;;;;;;;1.33;80.26074;95014.47;;;;
2021/04/21 04:21:33;;;;;;;12.9;8.900001;;;;;;;1.33;80.26074;95014.47;;;;
2021/04/21 04:22:36;;;;;;;12.9;8.900001;;;;;;;1.33;80.26074;95014.47;;;;
2021/04/21 04:23:41;;;;;;;12.9;8.900001;;;;;;;1.33;80.26074;95014.47;;;;
2021/04/21 04:24:42;;;;;;;13.85;8.65;;;;;;;1.29;80.19922;95016.38;;;;
2021/04/21 04:25:44;;;;;;;13.85;8.65;;;;;;;1.29;80.19922;95016.38;;;;
2021/04/21 04:26:47;;;;;;;13.85;8.65;;;;;;;1.29;80.19922;95016.38;;;;
2021/04/21 04:27:49;;;;;;;13.85;8.65;;;;;;;1.29;80.19922;95016.38;;;;
2021/04/21 04:28:53;;;;;;;13.85;8.65;;;;;;;1.29;80.19922;95016.38;;;;
2021/04/21 04:29:54;;;;;;;13.85;8.65;;;;;;;1.29;80.19922;95016.38;;;;
2021/04/21 04:30:57;;;;;;;13.85;8.65;;;;;;;1.29;80.19922;95016.38;;;;
2021/04/21 04:31:58;;;;;;;13.85;8.65;;;;;;;1.29;80.19922;95016.38;;;;
2021/04/21 04:33:02;;;;;;;13.85;8.65;;;;;;;1.29;80.19922;95016.38;;;;
2021/04/21 04:34:05;;;;;;;13.85;8.65;;;;;;;1.29;80.19922;95016.38;;;;
2021/04/21 04:35:08;;;;;;;11.75;8.500001;;;;;;;1.19;80.33887;95026.37;;;;
2021/04/21 04:36:11;;;;;;;11.75;8.500001;;;;;;;1.19;80.33887;95026.37;;;;
2021/04/21 04:37:11;;;;;;;11.75;8.500001;;;;;;;1.19;80.33887;95026.37;;;;
2021/04/21 04:38:14;;;;;;;11.75;8.500001;;;;;;;1.19;80.33887;95026.37;;;;
2021/04/21 04:39:15;;;;;;;11.75;8.500001;;;;;;;1.19;80.33887;95026.37;;;;
2021/04/21 04:40:15;;;;;;;11.75;8.500001;;;;;;;1.19;80.33887;95026.37;;;;
2021/04/21 04:41:18;;;;;;;11.75;8.500001;;;;;;;1.19;80.33887;95026.37;;;;
2021/04/21 04:42:18;;;;;;;11.75;8.500001;;;;;;;1.19;80.33887;95026.37;;;;
2021/04/21 04:43:20;;;;;;;11.75;8.500001;;;;;;;1.19;80.33887;95026.37;;;;
2021/04/21 04:44:23;;;;;;;11.75;8.500001;;;;;;;1.19;80.33887;95026.37;;;;
2021/04/21 04:45:24;;;;;;;11.75;8.500001;;;;;;;1.19;80.33887;95026.37;;;;
2021/04/21 04:46:27;;;;;;;17.3;9.299999;;;;;;;1.24;80.83887;95022.77;;;;
2021/04/21 04:47:30;;;;;;;17.3;9.299999;;;;;;;1.24;80.83887;95022.77;;;;
2021/04/21 04:48:37;;;;;;;17.3;9.299999;;;;;;;1.24;80.83887;95022.77;;;;
2021/04/21 04:49:44;;;;;;;17.3;9.299999;;;;;;;1.24;80.83887;95022.77;;;;
2021/04/21 04:50:48;;;;;;;17.3;9.299999;;;;;;;1.24;80.83887;95022.77;;;;
2021/04/21 04:51:50;;;;;;;17.3;9.299999;;;;;;;1.24;80.83887;95022.77;;;;
2021/04/21 04:52:53;;;;;;;17.3;9.299999;;;;;;;1.24;80.83887;95022.77;;;;
2021/04/21 04:53:55;;;;;;;17.3;9.299999;;;;;;;1.24;80.83887;95022.77;;;;
2021/04/21 04:54:56;;;;;;;17.3;9.299999;;;;;;;1.24;80.83887;95022.77;;;;
2021/04/21 04:55:59;;;;;;;17.3;9.299999;;;;;;;1.24;80.83887;95022.77;;;;
2021/04/21 04:57:00;;;;;;;14;9.35;;;;;;;1.41;80.71387;95031.67;;;;
2021/04/21 04:58:02;;;;;;;14;9.35;;;;;;;1.41;80.71387;95031.67;;;;
2021/04/21 04:59:04;;;;;;;14;9.35;;;;;;;1.41;80.71387;95031.67;;;;
2021/04/21 05:00:06;;;;;;;14;9.35;;;;;;;1.41;80.71387;95031.67;;;;
2021/04/21 05:01:09;;;;;;;14;9.35;;;;;;;1.41;80.71387;95031.67;;;;
2021/04/21 05:02:11;;;;;;;14;9.35;;;;;;;1.41;80.71387;95031.67;;;;
2021/04/21 05:03:14;;;;;;;14;9.35;;;;;;;1.41;80.71387;95031.67;;;;
2021/04/21 05:04:22;;;;;;;14;9.35;;;;;;;1.41;80.71387;95031.67;;;;
2021/04/21 05:05:27;;;;;;;14;9.35;;;;;;;1.41;80.71387;95031.67;;;;
2021/04/21 05:06:28;;;;;;;14;9.35;;;;;;;1.41;80.71387;95031.67;;;;
2021/04/21 05:07:34;;;;;;;13.1;8.849999;;;;;;;1.71;80.65332;95041.33;;;;
2021/04/21 05:08:40;;;;;;;13.1;8.849999;;;;;;;1.71;80.65332;95041.33;;;;
2021/04/21 05:09:44;;;;;;;13.1;8.849999;;;;;;;1.71;80.65332;95041.33;;;;
2021/04/21 05:10:50;;;;;;;13.1;8.849999;;;;;;;1.71;80.65332;95041.33;;;;
2021/04/21 05:11:56;;;;;;;13.1;8.849999;;;;;;;1.71;80.65332;95041.33;;;;
2021/04/21 05:12:58;;;;;;;13.1;8.849999;;;;;;;1.71;80.65332;95041.33;;;;
2021/04/21 05:14:04;;;;;;;13.1;8.849999;;;;;;;1.71;80.65332;95041.33;;;;
2021/04/21 05:15:10;;;;;;;13.1;8.849999;;;;;;;1.71;80.65332;95041.33;;;;
2021/04/21 05:17:35;;;;;;;13.1;8.849999;;;;;;;1.71;80.65332;95041.33;;;;
2021/04/21 05:23:04;;;;;;;12.2;8.6;;;;;;;2.06;80.52441;95051.95;;;;
2021/04/21 05:24:48;;;;;;;12.2;8.6;;;;;;;2.06;80.52441;95051.95;;;;
2021/04/21 05:30:10;;;;;;;13.35;9.099999;;;;;;;2.55;80.39453;95061.74;;;;
2021/04/21 05:31:37;;;;;;;13.35;9.099999;;;;;;;2.55;80.39453;95061.74;;;;
2021/04/21 05:34:48;;;;;;;13.35;9.099999;;;;;;;2.55;80.39453;95061.74;;;;
2021/04/21 05:39:21;;;;;;;12.2;8.700001;;;;;;;3.01;80.12598;95066.89;;;;
2021/04/21 05:48:45;;;;;;;12.2;8.700001;;;;;;;3.01;80.12598;95066.89;;;;
2021/04/21 05:50:04;;;;;;;13.45;9.15;;;;;;;3.52;79.94531;95075.82;;;;
2021/04/21 05:55:24;;;;;;;13.45;9.15;;;;;;;3.52;79.94531;95075.82;;;;
2021/04/21 05:57:12;;;;;;;13.45;9.15;;;;;;;3.52;79.94531;95075.82;;;;
2021/04/21 06:02:35;;;;;;;10.35;8.300001;;;;;;;4.13;79.69141;95082.51;;;;
2021/04/21 06:03:37;;;;;;;10.35;8.300001;;;;;;;4.13;79.69141;95082.51;;;;
2021/04/21 06:04:40;;;;;;;10.35;8.300001;;;;;;;4.13;79.69141;95082.51;;;;
2021/04/21 06:05:40;;;;;;;10.35;8.300001;;;;;;;4.13;79.69141;95082.51;;;;
2021/04/21 06:06:41;;;;;;;10.35;8.300001;;;;;;;4.13;79.69141;95082.51;;;;
2021/04/21 06:07:41;;;;;;;10.35;8.300001;;;;;;;4.13;79.69141;95082.51;;;;
2021/04/21 06:08:43;;;;;;;10.35;8.300001;;;;;;;4.13;79.69141;95082.51;;;;
2021/04/21 06:09:44;;;;;;;10.35;8.300001;;;;;;;4.13;79.69141;95082.51;;;;
2021/04/21 06:10:44;;;;;;;10.35;8.300001;;;;;;;4.13;79.69141;95082.51;;;;
2021/04/21 06:11:45;;;;;;;10.5;8.000002;;;;;;;4.76;79.61621;95079.33;;;;
2021/04/21 06:12:45;;;;;;;10.5;8.000002;;;;;;;4.76;79.61621;95079.33;;;;
2021/04/21 06:13:46;;;;;;;10.5;8.000002;;;;;;;4.76;79.61621;95079.33;;;;
2021/04/21 06:14:51;;;;;;;10.5;8.000002;;;;;;;4.76;79.61621;95079.33;;;;
2021/04/21 06:15:52;;;;;;;10.5;8.000002;;;;;;;4.76;79.61621;95079.33;;;;
2021/04/21 06:16:52;;;;;;;10.5;8.000002;;;;;;;4.76;79.61621;95079.33;;;;
2021/04/21 06:17:53;;;;;;;10.5;8.000002;;;;;;;4.76;79.61621;95079.33;;;;
2021/04/21 06:18:56;;;;;;;10.5;8.000002;;;;;;;4.76;79.61621;95079.33;;;;
2021/04/21 06:19:58;;;;;;;10.5;8.000002;;;;;;;4.76;79.61621;95079.33;;;;
2021/04/21 06:20:59;;;;;;;10.5;8.000002;;;;;;;4.76;79.61621;95079.33;;;;
2021/04/21 06:21:59;;;;;;;8.55;7.75;;;;;;;5.5;79.38379;95083.47;;;;
2021/04/21 06:23:00;;;;;;;8.55;7.75;;;;;;;5.5;79.38379;95083.47;;;;
2021/04/21 06:24:04;;;;;;;8.55;7.75;;;;;;;5.5;79.38379;95083.47;;;;
2021/04/21 06:25:20;;;;;;;8.55;7.75;;;;;;;5.5;79.38379;95083.47;;;;
2021/04/21 06:26:21;;;;;;;8.55;7.75;;;;;;;5.5;79.38379;95083.47;;;;
2021/04/21 06:27:24;;;;;;;8.55;7.75;;;;;;;5.5;79.38379;95083.47;;;;
2021/04/21 06:28:31;;;;;;;8.55;7.75;;;;;;;5.5;79.38379;95083.47;;;;
2021/04/21 06:29:32;;;;;;;8.55;7.75;;;;;;;5.5;79.38379;95083.47;;;;
2021/04/21 06:30:33;;;;;;;8.55;7.75;;;;;;;5.5;79.38379;95083.47;;;;
2021/04/21 06:31:34;;;;;;;8.55;7.75;;;;;;;5.5;79.38379;95083.47;;;;
2021/04/21 06:32:38;;;;;;;8.9;8;;;;;;;6.85;77.99121;95083.44;;;;
2021/04/21 06:33:39;;;;;;;8.9;8;;;;;;;6.85;77.99121;95083.44;;;;
2021/04/21 06:34:41;;;;;;;8.9;8;;;;;;;6.85;77.99121;95083.44;;;;
2021/04/21 06:35:42;;;;;;;8.9;8;;;;;;;6.85;77.99121;95083.44;;;;
2021/04/21 06:36:44;;;;;;;8.9;8;;;;;;;6.85;77.99121;95083.44;;;;
2021/04/21 06:37:47;;;;;;;8.9;8;;;;;;;6.85;77.99121;95083.44;;;;
2021/04/21 06:38:48;;;;;;;8.9;8;;;;;;;6.85;77.99121;95083.44;;;;
2021/04/21 06:39:54;;;;;;;8.9;8;;;;;;;6.85;77.99121;95083.44;;;;
2021/04/21 06:41:00;;;;;;;8.9;8;;;;;;;6.85;77.99121;95083.44;;;;